To NAV CANADA Home Page Login to a new session Search on AWWS site Disclaimer Vers la page française équivalente Tips FAQ What's new on the site To the Forecasts and Observations / NOTAM section To "File a Flight Plan" website Publications and other links Update of the User's profile FIC Telephone Numbers My Weather Data Folder Route Weather Data Regional Weather Data Local Weather Data To the Forecasts and Observations / NOTAM section
Request Generated 11/13/2018 at 18:04:58 UTC . Weather information available at that time is displayed.

METAR/TAF

TIMMINS (VICTOR M. POWER)/ON    

SPECI CYTS 131727Z 28012G17KT 240V310 2 1/2SM -SN DRSN OVC023 M13/M18 A3013 RMK SN3SC5 VIS S 5 SLP231=
SPECI CYTS 131715Z 28008G16KT 5SM -SN DRSN OVC022 M13/M18 A3013 RMK SN2SC6 VIS N 2 SLP233=
METAR CYTS 131700Z 28012G18KT 8SM -SN DRSN BKN024 OVC036 M14/M19 A3014 RMK SC6SC2 VIS LWR W-N SLP234=
METAR CYTS 131600Z 29009KT 15SM -SN BKN024 BKN036 M14/M19 A3015 RMK SC5SC2 PCPN VRY LGT SLP239=
METAR CYTS 131500Z 30007KT 240V320 15SM -SN OVC037 M14/M19 A3016 RMK SC8 PCPN VRY LGT SLP240=

TAF AMD CYTS 131749Z 1317/1402 28012G22KT P6SM -SN OVC025 TEMPO
1317/1320 21/2SM -SHSN
FM132000 29010KT P6SM BKN025 TEMPO 1320/1402 5SM -SN BKN020
RMK NXT FCST BY 132000Z=
Your time UTC time
Weather data provided by Environment Canada and NAV CANADA